Pierceville, Indiana
Current Conditions -  °F | °C
As of 4:55 AM on Saturday 29 Nov 2014 (Local Time) from KI67 Reporting Station
Clear Clear  
Wind Chill: 34°   Ceiling: Unl
Heat Index: 34°   Visibility: 10mi
Dew Point: 23°   Wind: 0mph
Humidity: 65%   Direction: NA
Pressure: 30.02"   Gusts: NA
Location:  39.13°N, 85.18°W
Report Text: KI67 290955Z AUTO 00000KT 10SM CLR 01/M05 A3002 RMK AO1
Loading
Personal Weather Stations






























Interactive Weather Map New forecast layout! Learn more

10-Day Weather Forecast

Advertisements
Track Severe Weather on mobile